Time;durP1;ratioP1;P1;durP2;ratioP2;P2;SDS_P1;SDS_P2;PMS_P1;PMS_P2;Temp;Humidity;BMP_temperature;BMP_pressure;BME280_temperature;BME280_humidity;BME280_pressure;Samples;Min_cycle;Max_cycle;Signal;HPM_P1;HPM_P2
2023/01/30 00:01:26;;;;;;;18.57;7.50;;;;;;;;;;5051858;28;20056;-76
2023/01/30 00:03:52;;;;;;;18.30;8.00;;;;;;;;;;5051820;28;20025;-76
2023/01/30 00:06:18;;;;;;;19.80;8.67;;;;;;;;;;5053293;28;20040;-76
2023/01/30 00:08:44;;;;;;;22.93;9.03;;;;;;;;;;5051294;28;20025;-76
2023/01/30 00:11:11;;;;;;;21.03;9.27;;;;;;;;;;5051659;28;20029;-76
2023/01/30 00:13:38;;;;;;;17.27;8.37;;;;;;;;;;5051691;28;20064;-78
2023/01/30 00:16:04;;;;;;;19.63;8.77;;;;;;;;;;5053463;28;20025;-75
2023/01/30 00:18:30;;;;;;;22.03;8.80;;;;;;;;;;5052068;28;20028;-75
2023/01/30 00:21:02;;;;;;;21.43;9.23;;;;;;;;;;5053731;28;20025;-78
2023/01/30 00:23:30;;;;;;;14.68;8.10;;;;;;;;;;5051672;28;20393;-76
2023/01/30 00:25:56;;;;;;;16.90;8.13;;;;;;;;;;5051764;28;20028;-76
2023/01/30 00:28:21;;;;;;;14.97;7.73;;;;;;;;;;5053516;28;20107;-78
2023/01/30 00:30:49;;;;;;;21.93;9.30;;;;;;;;;;5053008;28;20025;-77
2023/01/30 00:33:15;;;;;;;18.83;8.93;;;;;;;;;;5052768;28;20021;-76
2023/01/30 00:35:48;;;;;;;16.03;8.20;;;;;;;;;;5052837;28;20028;-76
2023/01/30 00:38:14;;;;;;;22.93;9.17;;;;;;;;;;5051833;28;20438;-76
2023/01/30 00:40:40;;;;;;;17.93;8.33;;;;;;;;;;5052676;28;20071;-79
2023/01/30 00:48:36;;;;;;;15.73;8.40;;;;;;;;;;5054112;28;20036;-78
2023/01/30 00:51:02;;;;;;;20.87;9.00;;;;;;;;;;5052859;28;20028;-77
2023/01/30 00:53:27;;;;;;;21.27;8.87;;;;;;;;;;5052641;28;20037;-78
2023/01/30 00:55:54;;;;;;;18.23;9.50;;;;;;;;;;5052631;28;20036;-77
2023/01/30 00:58:21;;;;;;;23.03;9.33;;;;;;;;;;5053033;28;20036;-77
2023/01/30 01:00:47;;;;;;;16.73;8.70;;;;;;;;;;5052387;28;20469;-75
2023/01/30 01:03:12;;;;;;;21.33;9.00;;;;;;;;;;5050871;28;20120;-77
2023/01/30 01:05:38;;;;;;;19.63;8.93;;;;;;;;;;5052694;28;20033;-75
2023/01/30 01:08:04;;;;;;;22.60;8.87;;;;;;;;;;5051066;28;20025;-76
2023/01/30 01:10:30;;;;;;;18.53;9.90;;;;;;;;;;5050946;28;20448;-77
2023/01/30 01:12:55;;;;;;;17.43;9.27;;;;;;;;;;5052374;28;20420;-77
2023/01/30 01:15:22;;;;;;;19.83;9.17;;;;;;;;;;5051004;28;20043;-78
2023/01/30 01:17:48;;;;;;;20.30;9.87;;;;;;;;;;5051252;28;20094;-76
2023/01/30 01:20:15;;;;;;;18.40;9.07;;;;;;;;;;5054089;28;20039;-78
2023/01/30 01:22:40;;;;;;;19.63;9.73;;;;;;;;;;5055193;28;20105;-76
2023/01/30 01:25:06;;;;;;;19.03;9.83;;;;;;;;;;5055027;28;20056;-75
2023/01/30 01:27:32;;;;;;;19.23;8.20;;;;;;;;;;5055283;28;20021;-77
2023/01/30 01:29:57;;;;;;;19.07;8.90;;;;;;;;;;5054808;28;20029;-75
2023/01/30 01:32:23;;;;;;;19.57;7.67;;;;;;;;;;5054845;28;20028;-77
2023/01/30 01:34:48;;;;;;;15.67;7.87;;;;;;;;;;5056181;28;20037;-76
2023/01/30 01:37:14;;;;;;;21.27;9.87;;;;;;;;;;5054835;28;20028;-77
2023/01/30 01:42:25;;;;;;;18.10;8.27;;;;;;;;;;5056299;28;20075;-77
2023/01/30 01:45:12;;;;;;;22.13;9.50;;;;;;;;;;5054274;28;20053;-78
2023/01/30 01:47:47;;;;;;;16.83;7.50;;;;;;;;;;5056079;28;20043;-77
2023/01/30 01:50:18;;;;;;;17.80;8.33;;;;;;;;;;5055587;28;20024;-78
2023/01/30 01:52:46;;;;;;;17.27;8.77;;;;;;;;;;5054287;28;20057;-78
2023/01/30 01:55:13;;;;;;;16.77;8.90;;;;;;;;;;5054464;28;20086;-74
2023/01/30 01:57:46;;;;;;;18.90;8.57;;;;;;;;;;5054541;28;20028;-77
2023/01/30 02:00:17;;;;;;;15.57;7.50;;;;;;;;;;5055838;28;20036;-78
2023/01/30 02:02:50;;;;;;;15.05;7.60;;;;;;;;;;5054152;28;20493;-77
2023/01/30 02:05:17;;;;;;;17.07;8.10;;;;;;;;;;5038262;28;20445;-77
2023/01/30 02:08:03;;;;;;;20.13;7.70;;;;;;;;;;5054182;28;20172;-79
2023/01/30 02:10:38;;;;;;;20.30;7.93;;;;;;;;;;5055567;28;20035;-77
2023/01/30 02:13:05;;;;;;;14.53;7.50;;;;;;;;;;5055719;28;20025;-76
2023/01/30 02:15:32;;;;;;;21.33;9.27;;;;;;;;;;5054313;28;20029;-78
2023/01/30 02:17:58;;;;;;;14.87;7.23;;;;;;;;;;5054277;28;20032;-78
2023/01/30 02:20:40;;;;;;;19.27;8.17;;;;;;;;;;5055400;28;20104;-76
2023/01/30 02:23:34;;;;;;;15.13;8.98;;;;;;;;;;5053776;28;20075;-78
2023/01/30 02:26:24;;;;;;;10.60;6.13;;;;;;;;;;5053666;28;20112;-77
2023/01/30 02:29:38;;;;;;;13.53;5.60;;;;;;;;;;5055093;28;20459;-78
2023/01/30 02:32:09;;;;;;;11.30;6.60;;;;;;;;;;5053550;28;20028;-77
2023/01/30 02:35:01;;;;;;;16.05;7.65;;;;;;;;;;5055064;28;20055;-79
2023/01/30 02:37:46;;;;;;;12.60;6.87;;;;;;;;;;5053449;28;20025;-77
2023/01/30 02:40:32;;;;;;;10.90;6.67;;;;;;;;;;5053931;28;20448;-76
2023/01/30 02:43:18;;;;;;;13.77;7.90;;;;;;;;;;5054832;28;20028;-78
2023/01/30 02:46:12;;;;;;;14.07;7.80;;;;;;;;;;5053262;28;20047;-76
2023/01/30 02:48:44;;;;;;;12.73;7.17;;;;;;;;;;5049211;28;20047;-78
2023/01/30 02:51:17;;;;;;;;;;;;;;;;;;5053592;28;20029;-78
2023/01/30 02:53:44;;;;;;;12.20;5.97;;;;;;;;;;5054734;28;20298;-76
2023/01/30 02:56:09;;;;;;;13.30;6.00;;;;;;;;;;5052985;28;20056;-76
2023/01/30 02:58:44;;;;;;;10.73;6.17;;;;;;;;;;5053441;28;20052;-78
2023/01/30 03:01:38;;;;;;;17.67;7.70;;;;;;;;;;5054365;28;20021;-77
2023/01/30 03:04:17;;;;;;;15.43;6.97;;;;;;;;;;5053526;28;20024;-76
2023/01/30 03:07:07;;;;;;;14.63;6.83;;;;;;;;;;5053277;28;20495;-76
2023/01/30 03:09:54;;;;;;;13.40;7.23;;;;;;;;;;5054833;28;20021;-76
2023/01/30 03:12:58;;;;;;;16.30;7.70;;;;;;;;;;5053726;28;20040;-75
2023/01/30 03:15:37;;;;;;;16.00;7.20;;;;;;;;;;5052670;28;20477;-76
2023/01/30 03:18:03;;;;;;;14.20;7.20;;;;;;;;;;5054248;28;20021;-76
2023/01/30 03:20:30;;;;;;;17.73;8.00;;;;;;;;;;5054105;28;20045;-75
2023/01/30 03:22:55;;;;;;;19.63;8.57;;;;;;;;;;5053968;28;20036;-78
2023/01/30 03:25:25;;;;;;;16.33;8.00;;;;;;;;;;5054705;28;20024;-77
2023/01/30 03:27:53;;;;;;;16.73;8.37;;;;;;;;;;5052440;28;20032;-76
2023/01/30 03:30:19;;;;;;;10.47;5.70;;;;;;;;;;5053894;28;20037;-78
2023/01/30 03:32:45;;;;;;;17.17;7.70;;;;;;;;;;5054020;28;20029;-75
2023/01/30 03:35:10;;;;;;;15.80;7.53;;;;;;;;;;5052696;28;20029;-75
2023/01/30 03:37:36;;;;;;;18.33;7.43;;;;;;;;;;5052737;28;20514;-75
2023/01/30 03:40:03;;;;;;;17.87;7.60;;;;;;;;;;5053647;28;20075;-76
2023/01/30 03:42:29;;;;;;;17.70;8.13;;;;;;;;;;5051663;28;20036;-76
2023/01/30 03:44:55;;;;;;;13.53;7.40;;;;;;;;;;5052121;28;20049;-76
2023/01/30 03:47:20;;;;;;;17.70;7.47;;;;;;;;;;5053193;28;20381;-76
2023/01/30 03:49:45;;;;;;;13.57;7.47;;;;;;;;;;5052276;28;20086;-76
2023/01/30 03:52:11;;;;;;;16.47;7.37;;;;;;;;;;5052111;28;20020;-76
2023/01/30 03:54:36;;;;;;;16.13;8.57;;;;;;;;;;5052506;28;20493;-76
2023/01/30 03:57:02;;;;;;;18.60;9.30;;;;;;;;;;5053287;28;20357;-76
2023/01/30 03:59:27;;;;;;;17.77;7.80;;;;;;;;;;5051909;28;20149;-76
2023/01/30 04:01:53;;;;;;;19.43;9.07;;;;;;;;;;5051878;28;20021;-76
2023/01/30 04:04:19;;;;;;;19.33;9.27;;;;;;;;;;5051947;28;20372;-76
2023/01/30 04:06:44;;;;;;;22.15;10.20;;;;;;;;;;5053425;28;20542;-76
2023/01/30 04:09:10;;;;;;;15.10;8.80;;;;;;;;;;5053141;28;20033;-76
2023/01/30 04:11:35;;;;;;;16.13;8.17;;;;;;;;;;5053554;28;20047;-76
2023/01/30 04:14:01;;;;;;;19.00;9.30;;;;;;;;;;5053503;28;20029;-77
2023/01/30 04:16:26;;;;;;;16.27;8.13;;;;;;;;;;5051587;28;20090;-75
2023/01/30 04:18:52;;;;;;;17.13;8.63;;;;;;;;;;5051678;28;20036;-74
2023/01/30 04:21:18;;;;;;;15.23;7.73;;;;;;;;;;5053072;28;20036;-78
2023/01/30 04:23:44;;;;;;;17.63;8.97;;;;;;;;;;5051594;28;20029;-76
2023/01/30 04:26:10;;;;;;;17.03;9.07;;;;;;;;;;5051900;28;20031;-76
2023/01/30 04:28:36;;;;;;;16.73;8.50;;;;;;;;;;5052722;28;20029;-77
2023/01/30 04:31:02;;;;;;;16.77;9.27;;;;;;;;;;5051612;28;20479;-76
2023/01/30 04:33:28;;;;;;;17.80;9.03;;;;;;;;;;5053201;28;20025;-77
2023/01/30 04:35:56;;;;;;;20.30;9.77;;;;;;;;;;5051856;28;20033;-77
2023/01/30 04:38:21;;;;;;;15.77;8.10;;;;;;;;;;5051849;28;20025;-77
2023/01/30 04:40:50;;;;;;;16.47;8.73;;;;;;;;;;5051750;28;20075;-77
2023/01/30 04:43:16;;;;;;;20.13;8.73;;;;;;;;;;5051217;28;20033;-76
2023/01/30 04:45:43;;;;;;;14.83;8.23;;;;;;;;;;5052798;28;20039;-77
2023/01/30 04:48:09;;;;;;;18.83;9.47;;;;;;;;;;5052589;28;20075;-76
2023/01/30 04:50:34;;;;;;;19.47;8.63;;;;;;;;;;5052768;28;20052;-76
2023/01/30 04:53:00;;;;;;;17.70;9.00;;;;;;;;;;5052654;28;20024;-76
2023/01/30 04:55:26;;;;;;;19.23;8.87;;;;;;;;;;5053913;28;20032;-77
2023/01/30 04:57:51;;;;;;;16.73;9.63;;;;;;;;;;5055297;28;20035;-74
2023/01/30 05:00:17;;;;;;;15.40;8.73;;;;;;;;;;5056536;28;20365;-78
2023/01/30 05:02:44;;;;;;;15.57;8.87;;;;;;;;;;5055252;28;20072;-77
2023/01/30 05:05:09;;;;;;;15.67;7.53;;;;;;;;;;5056507;28;20028;-75
2023/01/30 05:07:35;;;;;;;18.37;7.77;;;;;;;;;;5055047;28;20029;-76
2023/01/30 05:10:01;;;;;;;13.13;7.70;;;;;;;;;;5056619;28;20136;-78
2023/01/30 05:12:27;;;;;;;16.30;7.37;;;;;;;;;;5056540;28;20025;-76
2023/01/30 05:14:53;;;;;;;18.90;8.23;;;;;;;;;;5055028;28;20056;-77
2023/01/30 05:17:19;;;;;;;20.23;9.13;;;;;;;;;;5057283;28;20056;-79
2023/01/30 05:19:44;;;;;;;19.40;9.10;;;;;;;;;;5056856;28;20025;-79
2023/01/30 05:22:10;;;;;;;17.20;7.83;;;;;;;;;;5056326;28;20119;-75
2023/01/30 05:24:35;;;;;;;18.03;9.33;;;;;;;;;;5056225;28;20027;-75
2023/01/30 05:27:01;;;;;;;16.30;8.30;;;;;;;;;;5055346;28;20103;-76
2023/01/30 05:29:27;;;;;;;21.03;9.40;;;;;;;;;;5056370;28;20037;-75
2023/01/30 05:31:52;;;;;;;17.87;8.97;;;;;;;;;;5055059;28;20094;-78
2023/01/30 05:34:18;;;;;;;17.17;8.90;;;;;;;;;;5054893;28;20128;-74
2023/01/30 05:36:43;;;;;;;14.07;8.47;;;;;;;;;;5054992;28;20060;-78
2023/01/30 05:39:09;;;;;;;19.93;8.67;;;;;;;;;;5056789;28;20025;-78
2023/01/30 05:41:34;;;;;;;19.43;9.57;;;;;;;;;;5055509;28;20465;-76
2023/01/30 05:44:00;;;;;;;18.80;8.40;;;;;;;;;;5055433;28;20497;-78
2023/01/30 05:46:26;;;;;;;21.60;8.10;;;;;;;;;;5056771;28;20161;-83
2023/01/30 05:48:52;;;;;;;19.27;9.83;;;;;;;;;;5057677;28;20044;-76
2023/01/30 05:51:22;;;;;;;18.17;10.40;;;;;;;;;;5056485;28;20029;-83
2023/01/30 05:53:48;;;;;;;19.67;9.80;;;;;;;;;;5056287;28;20048;-74
2023/01/30 05:56:14;;;;;;;20.57;9.20;;;;;;;;;;5057150;28;20059;-80
2023/01/30 05:58:40;;;;;;;19.47;9.20;;;;;;;;;;5056538;28;20074;-76
2023/01/30 06:01:09;;;;;;;17.23;8.13;;;;;;;;;;5057194;28;20068;-83
2023/01/30 06:03:35;;;;;;;17.90;8.63;;;;;;;;;;5056562;28;20448;-82
2023/01/30 06:06:02;;;;;;;19.93;9.80;;;;;;;;;;5054376;28;20029;-82
2023/01/30 06:08:28;;;;;;;18.20;9.87;;;;;;;;;;5054969;28;20055;-81
2023/01/30 06:10:53;;;;;;;20.27;9.00;;;;;;;;;;5058032;28;20100;-82
2023/01/30 06:13:19;;;;;;;22.20;9.43;;;;;;;;;;5061430;28;20445;-79
2023/01/30 06:15:45;;;;;;;16.47;8.50;;;;;;;;;;5056834;28;20040;-77
2023/01/30 06:18:10;;;;;;;18.90;8.57;;;;;;;;;;5038319;28;20116;-83
2023/01/30 06:20:36;;;;;;;18.77;8.87;;;;;;;;;;5055435;28;20025;-80
2023/01/30 06:23:01;;;;;;;19.87;9.80;;;;;;;;;;5054764;28;20025;-81
2023/01/30 06:25:27;;;;;;;18.57;9.50;;;;;;;;;;5038116;28;20096;-78
2023/01/30 06:27:52;;;;;;;16.47;8.57;;;;;;;;;;5054523;28;20106;-77
2023/01/30 06:30:18;;;;;;;14.13;8.43;;;;;;;;;;5054602;28;20029;-81
2023/01/30 06:32:49;;;;;;;18.70;9.47;;;;;;;;;;5054660;28;20029;-80
2023/01/30 06:35:15;;;;;;;20.37;11.80;;;;;;;;;;5038331;28;20067;-77
2023/01/30 06:37:40;;;;;;;20.37;9.90;;;;;;;;;;5054615;28;20024;-78
2023/01/30 06:40:06;;;;;;;15.57;8.03;;;;;;;;;;5054702;28;20036;-83
2023/01/30 06:42:32;;;;;;;16.33;8.57;;;;;;;;;;5054633;28;20021;-81
2023/01/30 06:44:57;;;;;;;18.70;8.93;;;;;;;;;;5055962;28;20059;-78
2023/01/30 06:47:23;;;;;;;22.70;9.13;;;;;;;;;;5055713;28;20060;-81
2023/01/30 06:49:49;;;;;;;18.90;8.63;;;;;;;;;;5054693;28;20110;-79
2023/01/30 06:52:14;;;;;;;20.40;9.13;;;;;;;;;;5053634;28;20036;-80
2023/01/30 06:54:40;;;;;;;15.60;8.57;;;;;;;;;;5054776;28;20170;-81
2023/01/30 06:57:05;;;;;;;16.90;8.63;;;;;;;;;;5054847;28;20076;-79
2023/01/30 06:59:31;;;;;;;17.87;8.43;;;;;;;;;;5055108;28;20033;-79
2023/01/30 07:01:56;;;;;;;17.60;7.90;;;;;;;;;;5056845;28;20129;-82
2023/01/30 07:04:22;;;;;;;19.37;9.17;;;;;;;;;;5053728;28;20029;-79
2023/01/30 07:06:48;;;;;;;19.70;8.23;;;;;;;;;;5053746;28;20029;-79
2023/01/30 07:09:14;;;;;;;16.00;8.33;;;;;;;;;;5055111;28;20033;-80
2023/01/30 07:11:39;;;;;;;17.87;7.93;;;;;;;;;;5053752;28;20039;-80
2023/01/30 07:14:05;;;;;;;17.33;8.07;;;;;;;;;;5055431;28;20063;-81
2023/01/30 07:16:30;;;;;;;16.37;8.70;;;;;;;;;;5053667;28;20025;-79
2023/01/30 07:18:57;;;;;;;18.10;8.57;;;;;;;;;;5051984;28;20441;-78
2023/01/30 07:21:24;;;;;;;17.90;8.07;;;;;;;;;;5053717;28;20078;-75
2023/01/30 07:23:49;;;;;;;16.60;7.27;;;;;;;;;;5053504;28;20033;-79
2023/01/30 07:26:15;;;;;;;16.80;7.67;;;;;;;;;;5054957;28;20135;-80
2023/01/30 07:28:40;;;;;;;15.90;7.87;;;;;;;;;;5053323;28;20098;-77
2023/01/30 07:31:07;;;;;;;14.17;7.33;;;;;;;;;;5054760;28;20029;-78
2023/01/30 07:33:35;;;;;;;14.20;6.83;;;;;;;;;;5055438;28;20519;-77
2023/01/30 07:36:00;;;;;;;12.57;6.33;;;;;;;;;;5053532;28;20025;-79
2023/01/30 07:38:26;;;;;;;14.87;7.30;;;;;;;;;;5054567;28;20063;-79
2023/01/30 07:40:51;;;;;;;12.70;7.13;;;;;;;;;;5053118;28;20029;-78
2023/01/30 07:43:17;;;;;;;12.03;6.00;;;;;;;;;;5053406;28;20024;-78
2023/01/30 07:45:46;;;;;;;13.20;6.20;;;;;;;;;;5053939;28;20087;-76
2023/01/30 07:48:14;;;;;;;11.43;5.73;;;;;;;;;;5054279;28;20024;-77
2023/01/30 07:50:40;;;;;;;12.87;6.37;;;;;;;;;;5053746;28;20037;-77
2023/01/30 07:53:17;;;;;;;12.83;6.17;;;;;;;;;;5054154;28;20147;-74
2023/01/30 07:55:46;;;;;;;14.53;6.57;;;;;;;;;;5053095;28;20457;-76
2023/01/30 07:58:14;;;;;;;10.60;5.90;;;;;;;;;;5054452;28;20051;-78
2023/01/30 08:00:39;;;;;;;11.57;6.37;;;;;;;;;;5052716;28;20059;-78
2023/01/30 08:03:05;;;;;;;13.70;6.20;;;;;;;;;;5052738;28;20120;-75
2023/01/30 08:05:31;;;;;;;12.37;5.80;;;;;;;;;;5053388;28;20417;-78
2023/01/30 08:07:56;;;;;;;11.20;6.03;;;;;;;;;;5053949;28;20096;-75
2023/01/30 08:10:23;;;;;;;11.63;6.50;;;;;;;;;;5052409;28;20063;-81
2023/01/30 08:12:50;;;;;;;9.90;5.53;;;;;;;;;;5052643;28;20099;-76
2023/01/30 08:15:16;;;;;;;9.60;4.63;;;;;;;;;;5053434;28;20083;-79
2023/01/30 08:17:41;;;;;;;8.73;4.77;;;;;;;;;;5035450;28;20342;-80
2023/01/30 08:20:08;;;;;;;11.30;5.87;;;;;;;;;;5051861;28;20040;-78
2023/01/30 08:22:34;;;;;;;9.33;5.03;;;;;;;;;;5051898;28;20124;-77
2023/01/30 08:24:59;;;;;;;10.23;5.77;;;;;;;;;;5053294;28;20120;-78
2023/01/30 08:27:25;;;;;;;11.93;5.77;;;;;;;;;;5053311;28;20108;-78
2023/01/30 08:29:52;;;;;;;10.60;5.30;;;;;;;;;;5052301;28;20035;-79
2023/01/30 08:32:17;;;;;;;10.90;5.60;;;;;;;;;;5052474;28;20098;-78
2023/01/30 08:34:42;;;;;;;11.97;5.43;;;;;;;;;;5052394;28;20033;-79
2023/01/30 08:37:08;;;;;;;15.20;6.03;;;;;;;;;;5051976;28;20037;-82
2023/01/30 08:39:34;;;;;;;12.10;4.77;;;;;;;;;;5052856;28;20511;-75
2023/01/30 08:42:00;;;;;;;10.87;5.67;;;;;;;;;;5052213;28;20389;-76
2023/01/30 08:44:27;;;;;;;11.50;5.77;;;;;;;;;;5053401;28;20056;-76
2023/01/30 08:46:52;;;;;;;12.10;5.63;;;;;;;;;;5052807;28;20029;-79
2023/01/30 08:49:18;;;;;;;9.30;5.07;;;;;;;;;;5053452;28;20020;-76
2023/01/30 08:51:43;;;;;;;11.10;5.67;;;;;;;;;;5052209;28;20025;-79
2023/01/30 08:54:09;;;;;;;9.07;4.93;;;;;;;;;;5052389;28;20536;-78
2023/01/30 08:56:35;;;;;;;11.07;5.43;;;;;;;;;;5051679;28;20021;-77
2023/01/30 08:59:01;;;;;;;13.20;6.00;;;;;;;;;;5053240;28;20067;-79
2023/01/30 09:01:27;;;;;;;9.17;5.03;;;;;;;;;;5051548;28;20036;-75
2023/01/30 09:03:53;;;;;;;8.57;5.00;;;;;;;;;;5053582;28;20037;-78
2023/01/30 09:06:20;;;;;;;10.40;5.87;;;;;;;;;;5053084;28;20107;-76
2023/01/30 09:08:45;;;;;;;9.60;4.87;;;;;;;;;;5051699;28;20063;-75
2023/01/30 09:11:11;;;;;;;13.33;5.80;;;;;;;;;;5052041;28;20028;-75
2023/01/30 09:13:42;;;;;;;9.03;5.40;;;;;;;;;;5051802;28;20120;-76
2023/01/30 09:16:10;;;;;;;8.40;4.93;;;;;;;;;;5051304;28;20176;-76
2023/01/30 09:18:40;;;;;;;11.60;4.70;;;;;;;;;;5034619;28;20033;-78
2023/01/30 09:21:06;;;;;;;9.03;5.17;;;;;;;;;;5053604;28;20372;-78
2023/01/30 09:23:34;;;;;;;7.87;4.83;;;;;;;;;;5051522;28;20032;-76
2023/01/30 09:25:59;;;;;;;10.30;4.73;;;;;;;;;;5053863;28;20057;-75
2023/01/30 09:28:28;;;;;;;10.30;4.73;;;;;;;;;;5052238;28;20053;-80
2023/01/30 09:30:58;;;;;;;8.97;4.53;;;;;;;;;;5052094;28;20043;-75
2023/01/30 09:33:24;;;;;;;8.00;5.07;;;;;;;;;;5052620;28;20033;-77
2023/01/30 09:35:50;;;;;;;8.37;4.27;;;;;;;;;;5051320;28;20027;-78
2023/01/30 09:38:16;;;;;;;7.87;3.67;;;;;;;;;;5051711;28;20035;-80
2023/01/30 09:40:59;;;;;;;10.53;4.70;;;;;;;;;;5053008;28;20075;-77
2023/01/30 09:43:33;;;;;;;11.77;5.97;;;;;;;;;;5055137;28;20469;-78
2023/01/30 09:46:21;;;;;;;6.40;4.30;;;;;;;;;;5055113;28;20033;-77
2023/01/30 09:49:00;;;;;;;12.63;5.30;;;;;;;;;;5054419;28;20021;-76
2023/01/30 09:51:40;;;;;;;7.37;4.43;;;;;;;;;;5055514;28;20120;-78
2023/01/30 09:54:16;;;;;;;6.43;3.93;;;;;;;;;;5055170;28;20150;-78
2023/01/30 09:56:43;;;;;;;9.17;3.90;;;;;;;;;;5056447;28;20025;-79
2023/01/30 09:59:21;;;;;;;8.50;4.87;;;;;;;;;;5054864;28;20083;-80
2023/01/30 10:01:57;;;;;;;9.60;4.90;;;;;;;;;;5055204;28;20094;-78
2023/01/30 10:04:39;;;;;;;7.80;4.70;;;;;;;;;;5055549;28;20040;-81
2023/01/30 10:07:20;;;;;;;7.57;5.00;;;;;;;;;;5055155;28;20063;-76
2023/01/30 10:10:08;;;;;;;8.43;4.70;;;;;;;;;;5056349;28;20131;-76
2023/01/30 10:12:46;;;;;;;9.60;5.43;;;;;;;;;;5055917;28;20028;-78
2023/01/30 10:15:48;;;;;;;7.87;4.57;;;;;;;;;;5054920;28;20027;-77
2023/01/30 10:18:24;;;;;;;10.35;5.35;;;;;;;;;;5054850;28;20032;-80
2023/01/30 10:20:59;;;;;;;13.00;5.03;;;;;;;;;;5054847;28;20160;-79
2023/01/30 10:23:39;;;;;;;12.23;4.50;;;;;;;;;;5055760;28;20085;-80
2023/01/30 10:26:15;;;;;;;8.73;4.57;;;;;;;;;;5055750;28;20453;-78
2023/01/30 10:28:54;;;;;;;8.07;4.47;;;;;;;;;;5056899;28;20036;-79
2023/01/30 10:31:23;;;;;;;11.03;5.73;;;;;;;;;;5055340;28;20040;-80
2023/01/30 10:34:03;;;;;;;10.40;5.77;;;;;;;;;;5054292;28;20028;-76
2023/01/30 10:36:40;;;;;;;9.77;4.53;;;;;;;;;;5054186;28;20029;-78
2023/01/30 10:39:27;;;;;;;8.10;4.00;;;;;;;;;;5053998;28;20043;-78
2023/01/30 10:42:13;;;;;;;5.00;3.10;;;;;;;;;;5054291;28;20025;-79
2023/01/30 10:44:41;;;;;;;7.23;3.50;;;;;;;;;;5055260;28;20060;-83
2023/01/30 10:47:39;;;;;;;8.17;4.40;;;;;;;;;;5055793;28;20024;-78
2023/01/30 10:50:19;;;;;;;4.20;3.33;;;;;;;;;;5055299;28;20472;-80
2023/01/30 10:53:04;;;;;;;6.97;4.27;;;;;;;;;;5055848;28;20021;-78
2023/01/30 10:55:57;;;;;;;6.63;4.30;;;;;;;;;;5056140;28;20031;-82
2023/01/30 10:59:12;;;;;;;9.00;4.37;;;;;;;;;;5054200;28;20025;-78
2023/01/30 11:01:54;;;;;;;5.20;3.37;;;;;;;;;;5049110;28;20064;-76
2023/01/30 11:04:50;;;;;;;4.85;3.15;;;;;;;;;;5054185;28;20048;-79
2023/01/30 11:07:15;;;;;;;4.20;2.50;;;;;;;;;;5054297;28;20068;-81
2023/01/30 11:09:45;;;;;;;7.23;3.43;;;;;;;;;;5054586;28;20485;-76
2023/01/30 11:12:12;;;;;;;6.00;3.40;;;;;;;;;;5057123;28;20029;-81
2023/01/30 11:14:57;;;;;;;4.73;3.13;;;;;;;;;;5054508;28;20017;-76
2023/01/30 11:17:41;;;;;;;5.40;4.07;;;;;;;;;;5056174;28;20152;-79
2023/01/30 11:20:16;;;;;;;6.23;2.73;;;;;;;;;;5053872;28;20025;-77
2023/01/30 11:23:03;;;;;;;7.67;4.10;;;;;;;;;;5053717;28;20102;-82
2023/01/30 11:25:29;;;;;;;6.80;3.50;;;;;;;;;;5054135;28;20116;-82
2023/01/30 11:28:02;;;;;;;7.07;3.87;;;;;;;;;;5054228;28;20524;-76
2023/01/30 11:30:36;;;;;;;6.57;2.67;;;;;;;;;;5055957;28;20100;-74
2023/01/30 11:33:10;;;;;;;5.70;3.53;;;;;;;;;;5056264;28;20025;-75
2023/01/30 11:35:50;;;;;;;5.37;3.17;;;;;;;;;;5055268;28;20021;-83
2023/01/30 11:38:23;;;;;;;6.47;3.37;;;;;;;;;;5053101;28;20025;-76
2023/01/30 11:40:49;;;;;;;5.57;3.10;;;;;;;;;;5037595;28;20087;-83
2023/01/30 11:43:14;;;;;;;6.27;3.23;;;;;;;;;;5054487;28;20036;-83
2023/01/30 11:45:47;;;;;;;7.07;3.33;;;;;;;;;;5053959;28;20049;-82
2023/01/30 11:48:25;;;;;;;5.60;4.03;;;;;;;;;;5054023;28;20029;-75
2023/01/30 11:51:01;;;;;;;6.93;3.40;;;;;;;;;;5054067;28;20025;-76
2023/01/30 11:53:47;;;;;;;6.05;2.97;;;;;;;;;;5056265;28;20053;-78
2023/01/30 11:56:47;;;;;;;5.27;2.77;;;;;;;;;;5055443;28;20025;-76
2023/01/30 11:59:27;;;;;;;9.23;3.80;;;;;;;;;;5050994;28;20072;-80
2023/01/30 12:02:05;;;;;;;4.63;2.90;;;;;;;;;;5055547;28;20025;-82
2023/01/30 12:04:30;;;;;;;6.80;3.20;;;;;;;;;;5052402;28;20035;-77
2023/01/30 12:07:15;;;;;;;5.60;2.67;;;;;;;;;;5056790;28;20099;-76
2023/01/30 12:09:41;;;;;;;5.00;2.87;;;;;;;;;;5055278;28;20036;-76
2023/01/30 12:12:25;;;;;;;6.80;3.27;;;;;;;;;;5056032;28;20035;-77
2023/01/30 12:14:56;;;;;;;5.13;3.00;;;;;;;;;;5054829;28;20025;-76
2023/01/30 12:17:30;;;;;;;3.88;2.45;;;;;;;;;;5054614;28;20192;-80
2023/01/30 12:20:33;;;;;;;4.73;3.20;;;;;;;;;;5054793;28;20440;-79
2023/01/30 12:23:24;;;;;;;6.77;3.20;;;;;;;;;;5052677;28;20039;-75
2023/01/30 12:26:19;;;;;;;5.80;3.20;;;;;;;;;;5052663;28;20123;-76
2023/01/30 12:28:59;;;;;;;4.80;2.73;;;;;;;;;;5054284;28;20519;-83
2023/01/30 12:31:55;;;;;;;6.97;3.13;;;;;;;;;;5054286;28;20095;-82
2023/01/30 12:34:23;;;;;;;4.33;2.53;;;;;;;;;;5053475;28;20040;-76
2023/01/30 12:37:27;;;;;;;34.40;9.97;;;;;;;;;;5055095;28;20144;-81
2023/01/30 12:40:29;;;;;;;5.73;3.60;;;;;;;;;;5054158;28;20455;-83
2023/01/30 12:43:00;;;;;;;4.95;2.78;;;;;;;;;;5054591;28;20033;-84
2023/01/30 12:45:32;;;;;;;3.22;2.33;;;;;;;;;;5053482;28;20060;-75
2023/01/30 12:48:17;;;;;;;3.28;2.33;;;;;;;;;;5054005;28;20029;-84
2023/01/30 12:50:53;;;;;;;5.03;3.00;;;;;;;;;;5052593;28;20036;-82
2023/01/30 12:53:35;;;;;;;4.23;2.60;;;;;;;;;;5053212;28;20021;-76
2023/01/30 12:56:01;;;;;;;;;;;;;;;;;;5053374;28;20029;-81
2023/01/30 12:58:37;;;;;;;6.03;2.63;;;;;;;;;;5051825;28;19915;-82
2023/01/30 13:01:23;;;;;;;5.97;2.60;;;;;;;;;;5052500;28;20476;-83
2023/01/30 13:04:14;;;;;;;3.63;2.20;;;;;;;;;;5051793;28;20106;-80
2023/01/30 13:07:17;;;;;;;5.77;2.73;;;;;;;;;;5053969;28;20174;-75
2023/01/30 13:09:57;;;;;;;5.20;2.50;;;;;;;;;;5035750;28;20037;-82
2023/01/30 13:13:07;;;;;;;10.73;3.20;;;;;;;;;;5051910;28;20485;-77
2023/01/30 13:15:43;;;;;;;4.77;2.60;;;;;;;;;;5053106;28;20021;-82
2023/01/30 13:18:15;;;;;;;5.23;2.80;;;;;;;;;;5055925;28;20040;-81
2023/01/30 13:21:00;;;;;;;6.03;2.67;;;;;;;;;;5055653;28;20033;-81
2023/01/30 13:23:35;;;;;;;4.80;2.00;;;;;;;;;;5056771;28;20033;-81
2023/01/30 13:26:12;;;;;;;2.80;1.70;;;;;;;;;;5056368;28;20024;-81
2023/01/30 13:29:02;;;;;;;3.33;1.90;;;;;;;;;;5058061;28;20462;-82
2023/01/30 13:31:34;;;;;;;6.77;3.20;;;;;;;;;;5057128;28;20465;-76
2023/01/30 13:34:21;;;;;;;2.23;1.70;;;;;;;;;;5056162;28;20503;-81
2023/01/30 13:36:57;;;;;;;4.83;2.43;;;;;;;;;;5057744;28;20199;-79
2023/01/30 13:39:50;;;;;;;3.20;2.23;;;;;;;;;;5056602;28;20028;-74
2023/01/30 13:42:31;;;;;;;3.33;2.08;;;;;;;;;;5055469;28;20024;-79
2023/01/30 13:44:59;;;;;;;3.17;2.17;;;;;;;;;;5055482;28;20056;-77
2023/01/30 13:48:02;;;;;;;9.80;2.73;;;;;;;;;;5055213;28;20037;-76
2023/01/30 13:50:48;;;;;;;2.30;1.77;;;;;;;;;;5055764;28;20086;-78
2023/01/30 13:53:27;;;;;;;6.77;2.10;;;;;;;;;;5055608;28;20408;-76
2023/01/30 13:56:12;;;;;;;2.33;1.73;;;;;;;;;;5055232;28;20438;-78
2023/01/30 13:58:48;;;;;;;3.13;1.90;;;;;;;;;;5056632;28;20032;-83
2023/01/30 14:01:14;;;;;;;2.57;1.90;;;;;;;;;;5055973;28;20125;-77
2023/01/30 14:03:40;;;;;;;3.43;1.70;;;;;;;;;;5055678;28;20064;-76
2023/01/30 14:06:30;;;;;;;1.73;1.37;;;;;;;;;;5056051;28;20056;-78
2023/01/30 14:09:04;;;;;;;7.33;2.30;;;;;;;;;;5055873;28;20086;-79
2023/01/30 14:11:56;;;;;;;1.63;1.50;;;;;;;;;;5056061;28;20400;-75
2023/01/30 14:14:23;;;;;;;2.50;1.77;;;;;;;;;;5058066;28;20488;-75
2023/01/30 14:16:55;;;;;;;6.57;2.10;;;;;;;;;;5055604;28;20388;-76
2023/01/30 14:19:44;;;;;;;2.58;1.60;;;;;;;;;;5057101;28;20025;-75
2023/01/30 14:22:23;;;;;;;3.27;1.73;;;;;;;;;;5057513;28;20440;-77
2023/01/30 14:25:28;;;;;;;4.10;1.67;;;;;;;;;;5055137;28;20469;-81
2023/01/30 14:28:14;;;;;;;2.40;1.70;;;;;;;;;;5047931;28;20056;-75
2023/01/30 14:30:54;;;;;;;2.23;1.60;;;;;;;;;;5054710;28;20051;-81
2023/01/30 14:33:20;;;;;;;5.23;1.73;;;;;;;;;;5055302;28;20025;-76
2023/01/30 14:36:02;;;;;;;2.23;1.60;;;;;;;;;;5054075;28;20178;-76
2023/01/30 14:38:51;;;;;;;3.35;1.67;;;;;;;;;;5039759;28;20029;-84
2023/01/30 14:41:25;;;;;;;4.90;1.70;;;;;;;;;;5055099;28;20033;-83
2023/01/30 14:43:51;;;;;;;2.80;1.93;;;;;;;;;;5053945;28;20028;-80
2023/01/30 14:46:17;;;;;;;2.63;1.70;;;;;;;;;;5037578;28;20136;-79
2023/01/30 14:48:44;;;;;;;1.80;1.40;;;;;;;;;;5055005;28;20175;-82
2023/01/30 14:51:19;;;;;;;1.83;1.30;;;;;;;;;;5055803;28;20088;-77
2023/01/30 14:53:55;;;;;;;4.43;1.47;;;;;;;;;;5054550;28;20362;-76
2023/01/30 14:56:45;;;;;;;6.40;1.67;;;;;;;;;;5054753;28;20021;-82
2023/01/30 14:59:14;;;;;;;3.50;1.67;;;;;;;;;;5056118;28;20032;-79
2023/01/30 15:02:13;;;;;;;2.07;1.20;;;;;;;;;;5054372;28;20024;-77
2023/01/30 15:05:05;;;;;;;1.87;1.40;;;;;;;;;;5054489;28;20051;-77
2023/01/30 15:07:57;;;;;;;2.37;1.27;;;;;;;;;;5053316;28;20032;-75
2023/01/30 15:10:36;;;;;;;2.03;1.13;;;;;;;;;;5053925;28;20048;-76
2023/01/30 15:13:17;;;;;;;3.60;2.23;;;;;;;;;;5053979;28;20075;-82
2023/01/30 15:15:56;;;;;;;2.53;1.47;;;;;;;;;;5056128;28;20028;-77